Time;durP1;ratioP1;P1;durP2;ratioP2;P2;SDS_P1;SDS_P2;PMS_P1;PMS_P2;Temp;Humidity;BMP_temperature;BMP_pressure;BME280_temperature;BME280_humidity;BME280_pressure;Samples;Min_cycle;Max_cycle;Signal;HPM_P1;HPM_P2
2024/01/06 00:01:25;;;;;;;5.70;4.73;;;6.80;99.90;;;;;;5052214;28;20249;-75
2024/01/06 00:03:51;;;;;;;8.00;4.77;;;6.80;99.90;;;;;;5052081;28;20553;-75
2024/01/06 00:06:16;;;;;;;6.57;4.40;;;6.80;99.90;;;;;;5051832;28;20712;-74
2024/01/06 00:08:42;;;;;;;7.97;4.50;;;6.80;99.90;;;;;;5052214;28;20254;-73
2024/01/06 00:11:08;;;;;;;5.13;4.40;;;6.80;99.90;;;;;;5052099;28;20170;-74
2024/01/06 00:13:34;;;;;;;7.20;4.60;;;6.80;99.90;;;;;;5051736;28;20213;-76
2024/01/06 00:16:00;;;;;;;4.80;4.30;;;6.70;99.90;;;;;;5044846;28;20178;-76
2024/01/06 00:18:26;;;;;;;4.87;4.20;;;6.60;99.90;;;;;;5032156;28;20173;-76
2024/01/06 00:20:52;;;;;;;4.93;4.30;;;6.50;99.90;;;;;;5032003;28;20166;-75
2024/01/06 00:23:18;;;;;;;5.57;4.43;;;6.40;99.90;;;;;;5031897;28;20575;-75
2024/01/06 00:25:43;;;;;;;8.33;4.80;;;6.40;99.90;;;;;;5031754;28;20637;-75
2024/01/06 00:28:09;;;;;;;7.20;4.30;;;6.30;99.90;;;;;;5038381;28;20563;-75
2024/01/06 00:30:35;;;;;;;5.27;4.17;;;6.40;99.90;;;;;;5043604;28;20177;-75
2024/01/06 00:33:01;;;;;;;4.53;3.80;;;6.40;99.90;;;;;;5045915;28;20587;-75
2024/01/06 00:35:26;;;;;;;8.97;4.63;;;6.40;99.90;;;;;;5051581;28;20184;-75
2024/01/06 00:37:52;;;;;;;5.37;4.27;;;6.30;99.90;;;;;;5046824;28;20195;-75
2024/01/06 00:40:19;;;;;;;6.63;4.50;;;6.30;99.90;;;;;;5041657;28;20447;-75
2024/01/06 00:42:45;;;;;;;6.73;4.30;;;6.30;99.90;;;;;;5051177;28;20181;-75
2024/01/06 00:45:10;;;;;;;4.70;4.23;;;6.30;99.90;;;;;;5034004;28;20184;-75
2024/01/06 00:47:36;;;;;;;4.90;4.40;;;6.30;99.90;;;;;;5032019;28;20170;-75
2024/01/06 00:50:02;;;;;;;6.37;4.33;;;6.30;99.90;;;;;;5051043;28;20571;-75
2024/01/06 00:52:28;;;;;;;5.07;4.20;;;6.40;99.90;;;;;;5051137;28;20197;-75
2024/01/06 00:54:53;;;;;;;5.90;4.60;;;6.40;99.90;;;;;;5051177;28;20172;-75
2024/01/06 00:57:23;;;;;;;4.73;4.30;;;6.40;99.90;;;;;;5050888;28;20183;-75
2024/01/06 00:59:49;;;;;;;5.13;4.20;;;6.40;99.90;;;;;;5051030;28;20185;-75
2024/01/06 01:02:15;;;;;;;5.73;4.30;;;6.30;99.90;;;;;;5051103;28;20180;-75
2024/01/06 01:04:41;;;;;;;6.27;4.40;;;6.30;99.90;;;;;;5051070;28;20166;-75
2024/01/06 01:07:06;;;;;;;4.53;4.00;;;6.30;99.90;;;;;;5051131;28;20176;-75
2024/01/06 01:09:32;;;;;;;5.90;4.10;;;6.30;99.90;;;;;;5051012;28;20256;-75
2024/01/06 01:11:58;;;;;;;7.03;4.20;;;6.30;99.90;;;;;;5050898;28;20644;-75
2024/01/06 01:14:23;;;;;;;4.50;4.10;;;6.30;99.90;;;;;;5050949;28;20664;-75
2024/01/06 01:16:49;;;;;;;4.93;4.10;;;6.20;99.90;;;;;;5050770;28;20181;-75
2024/01/06 01:19:15;;;;;;;7.27;4.37;;;6.20;99.90;;;;;;5050980;28;20701;-75
2024/01/06 01:21:40;;;;;;;4.80;3.83;;;6.30;99.90;;;;;;5051001;28;20195;-75
2024/01/06 01:24:06;;;;;;;6.30;4.00;;;6.30;99.90;;;;;;5050895;28;20216;-75
2024/01/06 01:26:32;;;;;;;4.50;4.10;;;6.20;99.90;;;;;;5050805;28;20165;-75
2024/01/06 01:28:57;;;;;;;4.73;4.00;;;6.10;99.90;;;;;;5050707;28;20173;-75
2024/01/06 01:31:23;;;;;;;4.23;3.70;;;6.10;99.90;;;;;;5051086;28;20173;-75
2024/01/06 01:33:48;;;;;;;4.33;4.00;;;6.00;99.90;;;;;;5034283;28;20202;-75
2024/01/06 01:36:14;;;;;;;5.20;3.83;;;5.90;99.90;;;;;;5038588;28;20189;-75
2024/01/06 01:38:40;;;;;;;4.13;3.73;;;5.80;99.90;;;;;;5031343;28;20177;-75
2024/01/06 01:41:05;;;;;;;4.30;3.90;;;5.80;99.90;;;;;;5037382;28;20185;-75
2024/01/06 01:43:31;;;;;;;4.63;3.90;;;5.70;99.90;;;;;;5054766;28;20543;-75
2024/01/06 01:45:58;;;;;;;4.53;4.13;;;5.60;99.90;;;;;;5053109;28;20177;-75
2024/01/06 01:48:25;;;;;;;4.10;3.70;;;5.50;99.90;;;;;;5054646;28;20181;-75
2024/01/06 01:50:53;;;;;;;4.13;3.77;;;5.50;99.90;;;;;;5054420;28;20268;-75
2024/01/06 01:53:20;;;;;;;3.87;3.50;;;5.40;99.90;;;;;;5054634;28;20225;-75
2024/01/06 01:55:47;;;;;;;5.60;3.73;;;5.30;99.90;;;;;;5054700;28;20169;-75
2024/01/06 01:58:15;;;;;;;4.47;3.77;;;5.30;99.90;;;;;;5054481;28;20181;-75
2024/01/06 02:00:41;;;;;;;4.30;3.73;;;5.30;99.90;;;;;;5054703;28;20272;-76
2024/01/06 02:03:08;;;;;;;4.83;3.60;;;5.20;99.90;;;;;;5054546;28;20667;-76
2024/01/06 02:05:34;;;;;;;4.37;3.63;;;5.20;99.90;;;;;;5054548;28;20184;-76
2024/01/06 02:08:00;;;;;;;3.70;3.40;;;5.20;99.90;;;;;;5054338;28;20711;-76
2024/01/06 02:10:26;;;;;;;4.33;3.50;;;5.10;99.90;;;;;;5053022;28;20169;-76
2024/01/06 02:12:51;;;;;;;3.50;3.20;;;5.10;99.90;;;;;;5054262;28;20209;-75
2024/01/06 02:15:18;;;;;;;4.60;3.50;;;5.10;99.90;;;;;;5054623;28;20176;-76
2024/01/06 02:17:44;;;;;;;5.63;3.50;;;5.10;99.90;;;;;;5054155;28;20204;-76
2024/01/06 02:20:11;;;;;;;4.07;3.27;;;5.10;99.90;;;;;;5054176;28;20165;-76
2024/01/06 02:22:37;;;;;;;4.93;3.37;;;5.10;99.90;;;;;;5054112;28;20165;-76
2024/01/06 02:25:12;;;;;;;5.10;3.40;;;5.20;99.90;;;;;;5053956;28;20196;-76
2024/01/06 02:27:38;;;;;;;4.47;3.27;;;5.20;99.90;;;;;;5054145;28;20222;-76
2024/01/06 02:30:05;;;;;;;3.20;3.00;;;5.10;99.90;;;;;;5053779;28;20161;-75
2024/01/06 02:32:30;;;;;;;4.07;3.20;;;5.10;99.90;;;;;;5053638;28;20212;-75
2024/01/06 02:34:56;;;;;;;3.67;3.27;;;5.10;99.90;;;;;;5043158;28;20196;-75
2024/01/06 02:37:21;;;;;;;4.13;3.20;;;5.10;99.90;;;;;;5066034;28;20596;-76
2024/01/06 02:39:47;;;;;;;3.87;3.30;;;5.10;99.90;;;;;;5033620;28;20234;-75
2024/01/06 02:42:13;;;;;;;3.70;3.00;;;5.00;99.90;;;;;;5033778;28;20641;-76
2024/01/06 02:44:38;;;;;;;4.00;3.00;;;5.10;99.90;;;;;;5037372;28;20173;-76
2024/01/06 02:47:05;;;;;;;4.17;3.27;;;5.00;99.90;;;;;;5053491;28;20200;-75
2024/01/06 02:49:30;;;;;;;4.53;3.10;;;5.00;99.90;;;;;;5045761;28;20213;-76
2024/01/06 02:51:56;;;;;;;4.53;3.30;;;4.90;99.90;;;;;;5043428;28;20229;-73
2024/01/06 02:54:21;;;;;;;3.10;2.90;;;4.90;99.90;;;;;;5036507;28;20259;-75
2024/01/06 02:56:47;;;;;;;3.63;3.00;;;4.80;99.90;;;;;;5037553;28;20222;-77
2024/01/06 02:59:13;;;;;;;4.63;3.20;;;4.80;99.90;;;;;;5040526;28;20189;-76
2024/01/06 03:01:38;;;;;;;3.50;3.13;;;4.70;99.90;;;;;;5053386;28;20169;-76
2024/01/06 03:04:04;;;;;;;3.57;3.07;;;4.60;99.90;;;;;;5053271;28;20177;-74
2024/01/06 03:06:30;;;;;;;3.23;2.90;;;4.60;99.90;;;;;;5053217;28;20252;-74
2024/01/06 03:08:55;;;;;;;4.03;3.10;;;4.50;99.90;;;;;;5051989;28;20169;-74
2024/01/06 03:11:21;;;;;;;5.67;3.47;;;4.40;99.90;;;;;;5053190;28;20169;-74
2024/01/06 03:13:47;;;;;;;6.33;3.10;;;4.40;99.90;;;;;;5053054;28;20209;-74
2024/01/06 03:16:13;;;;;;;4.90;3.03;;;4.40;99.90;;;;;;5053075;28;20603;-73
2024/01/06 03:18:38;;;;;;;4.73;3.03;;;4.30;99.90;;;;;;5053022;28;20227;-74
2024/01/06 03:21:04;;;;;;;3.00;2.70;;;4.30;99.90;;;;;;5053048;28;20643;-75
2024/01/06 03:23:30;;;;;;;3.20;2.90;;;4.20;99.90;;;;;;5052995;28;20639;-75
2024/01/06 03:25:55;;;;;;;6.60;3.07;;;4.20;99.90;;;;;;5052954;28;20256;-75
2024/01/06 03:28:21;;;;;;;4.87;3.17;;;4.10;99.90;;;;;;5052919;28;20620;-74
2024/01/06 03:30:47;;;;;;;4.53;3.20;;;4.10;99.90;;;;;;5052460;28;20184;-74
2024/01/06 03:33:13;;;;;;;3.57;2.90;;;4.10;99.90;;;;;;5049786;28;20274;-74
2024/01/06 03:35:38;;;;;;;4.87;3.00;;;4.10;99.90;;;;;;5036076;28;20174;-73
2024/01/06 03:38:04;;;;;;;2.80;2.60;;;4.00;99.90;;;;;;5048414;28;20184;-75
2024/01/06 03:40:30;;;;;;;3.03;2.70;;;4.00;99.90;;;;;;5032931;28;20177;-76
2024/01/06 03:42:55;;;;;;;2.90;2.70;;;4.00;99.90;;;;;;5045988;28;20216;-76
2024/01/06 03:45:21;;;;;;;5.97;3.00;;;4.00;99.90;;;;;;5039533;28;20185;-76
2024/01/06 03:47:46;;;;;;;3.00;2.60;;;4.00;99.90;;;;;;5032781;28;20640;-73
2024/01/06 03:50:13;;;;;;;2.97;2.67;;;4.00;99.90;;;;;;5032680;28;20624;-73
2024/01/06 03:52:38;;;;;;;5.03;2.87;;;4.00;99.90;;;;;;5032012;28;20224;-76
2024/01/06 03:55:05;;;;;;;4.67;3.00;;;4.00;99.90;;;;;;5038764;28;20624;-74
2024/01/06 03:57:31;;;;;;;6.90;2.87;;;4.10;99.90;;;;;;5036115;28;20541;-74
2024/01/06 03:59:57;;;;;;;3.40;2.60;;;4.10;99.90;;;;;;5032710;28;20236;-74
2024/01/06 04:02:23;;;;;;;3.07;2.23;;;4.10;99.90;;;;;;5042969;28;20261;-74
2024/01/06 04:04:49;;;;;;;3.20;2.40;;;4.00;99.90;;;;;;5040596;28;20181;-74
2024/01/06 04:07:15;;;;;;;2.77;2.50;;;4.00;99.90;;;;;;5032111;28;20178;-74
2024/01/06 04:09:43;;;;;;;2.80;2.50;;;4.00;99.90;;;;;;5031940;28;20279;-74
2024/01/06 04:12:09;;;;;;;5.33;2.90;;;3.90;99.90;;;;;;5031818;28;20260;-77
2024/01/06 04:14:34;;;;;;;2.77;2.50;;;3.90;99.90;;;;;;5035758;28;20249;-74
2024/01/06 04:17:00;;;;;;;4.10;2.80;;;3.90;99.90;;;;;;5044465;28;20169;-75
2024/01/06 04:19:25;;;;;;;4.13;2.60;;;3.80;99.90;;;;;;5048477;28;20185;-74
2024/01/06 04:21:51;;;;;;;4.30;2.70;;;3.80;99.90;;;;;;5031873;28;20174;-74
2024/01/06 04:24:17;;;;;;;4.57;2.73;;;3.80;99.90;;;;;;5031787;28;20165;-77
2024/01/06 04:26:44;;;;;;;5.17;3.00;;;3.80;99.90;;;;;;5031910;28;20177;-74
2024/01/06 04:29:10;;;;;;;5.30;2.77;;;3.70;99.90;;;;;;5035035;28;20196;-74
2024/01/06 04:31:36;;;;;;;3.00;2.70;;;3.70;99.90;;;;;;5047838;28;20178;-74
2024/01/06 04:34:03;;;;;;;3.23;2.50;;;3.80;99.90;;;;;;5036203;28;20695;-74
2024/01/06 04:36:28;;;;;;;2.60;2.30;;;3.80;99.90;;;;;;5047163;28;20220;-74
2024/01/06 04:38:54;;;;;;;5.80;2.63;;;3.80;99.90;;;;;;5043292;28;20208;-74
2024/01/06 04:41:21;;;;;;;3.87;2.70;;;3.70;99.90;;;;;;5051732;28;20196;-74
2024/01/06 04:43:47;;;;;;;2.83;2.60;;;3.70;99.90;;;;;;5051395;28;20177;-74
2024/01/06 04:46:12;;;;;;;2.97;2.50;;;3.70;99.90;;;;;;5051657;28;20200;-74
2024/01/06 04:48:43;;;;;;;3.20;2.50;;;3.80;99.90;;;;;;5051590;28;20197;-75
2024/01/06 04:51:10;;;;;;;7.73;3.03;;;3.70;99.90;;;;;;5051358;28;20229;-75
2024/01/06 04:53:36;;;;;;;2.50;2.30;;;3.80;99.90;;;;;;5050153;28;20252;-75
2024/01/06 04:56:02;;;;;;;4.27;2.47;;;3.70;99.90;;;;;;5051463;28;20648;-74
2024/01/06 04:58:27;;;;;;;4.17;2.50;;;3.70;99.90;;;;;;5051408;28;20203;-74
2024/01/06 05:00:53;;;;;;;5.63;2.77;;;3.70;99.90;;;;;;5051442;28;20175;-75
2024/01/06 05:03:19;;;;;;;8.03;3.07;;;3.80;99.90;;;;;;5051322;28;20517;-74
2024/01/06 05:05:45;;;;;;;2.77;2.50;;;3.80;99.90;;;;;;5051641;28;20178;-74
2024/01/06 05:08:10;;;;;;;2.67;2.40;;;3.80;99.90;;;;;;5051593;28;20549;-75
2024/01/06 05:10:36;;;;;;;5.17;2.63;;;3.70;99.90;;;;;;5051334;28;20628;-74
2024/01/06 05:13:02;;;;;;;3.57;2.60;;;3.60;99.90;;;;;;5051424;28;20631;-74
2024/01/06 05:15:27;;;;;;;4.37;2.50;;;3.70;99.90;;;;;;5051252;28;20207;-74
2024/01/06 05:17:53;;;;;;;2.53;2.33;;;3.60;99.90;;;;;;5051185;28;20181;-75
2024/01/06 05:20:19;;;;;;;5.20;2.73;;;3.50;99.90;;;;;;5051553;28;20173;-74
2024/01/06 05:22:44;;;;;;;5.80;2.70;;;3.50;99.90;;;;;;5051615;28;20260;-74
2024/01/06 05:25:10;;;;;;;3.57;2.47;;;3.50;99.90;;;;;;5050888;28;20587;-75
2024/01/06 05:27:36;;;;;;;3.90;2.40;;;3.40;99.90;;;;;;5051009;28;20165;-75
2024/01/06 05:30:02;;;;;;;4.83;2.77;;;3.40;99.90;;;;;;5051113;28;20165;-74
2024/01/06 05:32:27;;;;;;;3.77;2.50;;;3.40;99.90;;;;;;5049491;28;20200;-75
2024/01/06 05:34:53;;;;;;;3.80;2.40;;;3.30;99.90;;;;;;5050985;28;20531;-74
2024/01/06 05:37:19;;;;;;;5.83;2.53;;;3.30;99.90;;;;;;5051063;28;20620;-74
2024/01/06 05:39:44;;;;;;;4.00;2.40;;;3.20;99.90;;;;;;5050946;28;20227;-74
2024/01/06 05:42:15;;;;;;;3.97;2.40;;;3.30;99.90;;;;;;5049461;28;20185;-74
2024/01/06 05:44:41;;;;;;;3.53;2.40;;;3.30;99.90;;;;;;5042724;28;20205;-74
2024/01/06 05:47:08;;;;;;;6.93;2.67;;;3.30;99.90;;;;;;5046222;28;20264;-74
2024/01/06 05:49:33;;;;;;;4.13;2.63;;;3.30;99.90;;;;;;5050744;28;20176;-74
2024/01/06 05:51:59;;;;;;;6.00;2.63;;;3.30;99.90;;;;;;5050688;28;20218;-74
2024/01/06 05:54:25;;;;;;;5.87;2.63;;;3.20;99.90;;;;;;5050818;28;20244;-74
2024/01/06 05:56:51;;;;;;;3.10;2.10;;;3.20;99.90;;;;;;5049421;28;20203;-74
2024/01/06 05:59:16;;;;;;;2.50;2.17;;;3.20;99.90;;;;;;5050704;28;20204;-74
2024/01/06 06:01:43;;;;;;;4.17;2.27;;;3.10;99.90;;;;;;5050548;28;20169;-74
2024/01/06 06:04:10;;;;;;;1.90;1.80;;;3.20;99.90;;;;;;5050493;28;20204;-74
2024/01/06 06:06:35;;;;;;;2.77;2.00;;;3.20;99.90;;;;;;5050682;28;20192;-74
2024/01/06 06:09:01;;;;;;;3.20;2.20;;;3.20;99.90;;;;;;5050374;28;20200;-74
2024/01/06 06:11:27;;;;;;;2.73;2.10;;;3.30;99.90;;;;;;5050640;28;20546;-75
2024/01/06 06:13:52;;;;;;;2.53;1.90;;;3.20;99.90;;;;;;5042293;28;20252;-75
2024/01/06 06:16:18;;;;;;;3.93;2.20;;;3.20;99.90;;;;;;5046911;28;20705;-74
2024/01/06 06:18:44;;;;;;;6.10;2.40;;;3.30;99.90;;;;;;5048750;28;20169;-74
2024/01/06 06:21:10;;;;;;;2.27;2.00;;;3.30;99.90;;;;;;5030416;28;20170;-74
2024/01/06 06:23:35;;;;;;;3.37;2.13;;;3.30;99.90;;;;;;5029175;28;20181;-74
2024/01/06 06:26:08;;;;;;;3.10;2.10;;;3.30;99.90;;;;;;5030454;28;20189;-74
2024/01/06 06:28:34;;;;;;;3.37;2.17;;;3.40;99.90;;;;;;5031945;28;20174;-74
2024/01/06 06:31:01;;;;;;;2.90;2.10;;;3.40;99.90;;;;;;5035758;28;20173;-74
2024/01/06 06:33:27;;;;;;;5.77;2.63;;;3.40;99.90;;;;;;5053663;28;20829;-75
2024/01/06 06:35:52;;;;;;;2.57;2.30;;;3.30;99.90;;;;;;5053788;28;20252;-74
2024/01/06 06:38:18;;;;;;;3.47;2.30;;;3.30;99.90;;;;;;5053707;28;20170;-74
2024/01/06 06:40:44;;;;;;;3.63;2.20;;;3.30;99.90;;;;;;5053524;28;20492;-74
2024/01/06 06:43:09;;;;;;;3.40;2.20;;;3.30;99.90;;;;;;5053522;28;20173;-75
2024/01/06 06:45:35;;;;;;;5.10;2.47;;;3.20;99.90;;;;;;5052805;28;20177;-74
2024/01/06 06:48:01;;;;;;;2.37;2.17;;;3.20;99.90;;;;;;5045659;28;20185;-74
2024/01/06 06:50:26;;;;;;;3.60;2.20;;;3.20;99.90;;;;;;5048302;28;20765;-74
2024/01/06 06:52:52;;;;;;;3.70;2.20;;;3.20;99.90;;;;;;5040213;28;20256;-74
2024/01/06 06:55:18;;;;;;;2.37;2.17;;;3.10;99.90;;;;;;5051947;28;20204;-74
2024/01/06 06:57:44;;;;;;;9.33;2.83;;;3.10;99.90;;;;;;5048547;28;20178;-74
2024/01/06 07:00:10;;;;;;;4.00;2.40;;;3.00;99.90;;;;;;5045334;28;20539;-74
2024/01/06 07:02:36;;;;;;;6.07;2.43;;;3.10;99.90;;;;;;5053387;28;20181;-74
2024/01/06 07:05:02;;;;;;;4.53;2.27;;;3.00;99.90;;;;;;5053326;28;20264;-74
2024/01/06 07:07:27;;;;;;;2.90;2.00;;;3.00;99.90;;;;;;5053316;28;20731;-75
2024/01/06 07:09:53;;;;;;;3.53;2.20;;;2.90;99.90;;;;;;5053306;28;20647;-74
2024/01/06 07:12:19;;;;;;;3.53;2.10;;;2.80;99.90;;;;;;5053219;28;20231;-75
2024/01/06 07:14:45;;;;;;;3.87;2.60;;;2.90;99.90;;;;;;5053126;28;20640;-74
2024/01/06 07:17:10;;;;;;;2.80;2.50;;;2.80;99.90;;;;;;5051875;28;20224;-74
2024/01/06 07:19:37;;;;;;;7.33;2.80;;;2.80;99.90;;;;;;5053060;28;20177;-73
2024/01/06 07:22:05;;;;;;;4.33;2.40;;;2.80;99.90;;;;;;5053227;28;20169;-74
2024/01/06 07:24:30;;;;;;;4.60;2.60;;;2.70;99.90;;;;;;5053016;28;20169;-74
2024/01/06 07:26:56;;;;;;;4.43;2.90;;;2.70;99.90;;;;;;5052792;28;20173;-74
2024/01/06 07:29:22;;;;;;;5.40;3.10;;;2.70;99.90;;;;;;5052697;28;20170;-75
2024/01/06 07:31:47;;;;;;;4.87;3.10;;;2.60;99.90;;;;;;5052823;28;20180;-75
2024/01/06 07:34:13;;;;;;;4.60;2.60;;;2.60;99.90;;;;;;5052735;28;20221;-74
2024/01/06 07:36:39;;;;;;;3.30;2.33;;;2.60;99.90;;;;;;5053041;28;20252;-74
2024/01/06 07:39:05;;;;;;;2.80;2.37;;;2.60;99.90;;;;;;5052113;28;20184;-74
2024/01/06 07:41:32;;;;;;;3.00;2.40;;;2.50;99.90;;;;;;5050206;28;20260;-74
2024/01/06 07:43:57;;;;;;;5.90;2.80;;;2.50;99.90;;;;;;5037729;28;20579;-74
2024/01/06 07:46:24;;;;;;;2.80;2.27;;;2.40;99.90;;;;;;5038442;28;20213;-74
2024/01/06 07:48:49;;;;;;;4.57;2.53;;;2.40;99.90;;;;;;5032592;28;20576;-74
2024/01/06 07:51:15;;;;;;;4.40;2.20;;;2.40;99.90;;;;;;5037351;28;20205;-74
2024/01/06 07:53:42;;;;;;;4.00;2.03;;;2.40;99.90;;;;;;5047897;28;20209;-73
2024/01/06 07:56:08;;;;;;;3.83;2.00;;;2.30;99.90;;;;;;5037401;28;20178;-73
2024/01/06 07:58:34;;;;;;;3.20;2.20;;;2.20;99.90;;;;;;5050209;28;20177;-73
2024/01/06 08:01:00;;;;;;;2.10;1.90;;;2.20;99.90;;;;;;5052243;28;20177;-73
2024/01/06 08:03:25;;;;;;;5.30;2.27;;;2.20;99.90;;;;;;5052099;28;20214;-72
2024/01/06 08:05:51;;;;;;;8.07;2.73;;;2.20;99.90;;;;;;5050234;28;20180;-72
2024/01/06 08:08:18;;;;;;;4.00;2.00;;;2.30;99.90;;;;;;5050908;28;20189;-72
2024/01/06 08:10:44;;;;;;;3.63;1.83;;;2.30;99.90;;;;;;5045059;28;20162;-73
2024/01/06 08:13:10;;;;;;;3.03;1.97;;;2.30;99.90;;;;;;5032026;28;20209;-73
2024/01/06 08:15:35;;;;;;;4.63;1.80;;;2.30;99.90;;;;;;5034775;28;20532;-73
2024/01/06 08:18:01;;;;;;;2.27;1.70;;;2.30;99.90;;;;;;5052005;28;20588;-73
2024/01/06 08:20:27;;;;;;;4.27;1.90;;;2.20;99.90;;;;;;5051900;28;20200;-73
2024/01/06 08:22:53;;;;;;;4.53;2.13;;;2.10;99.90;;;;;;5051986;28;20632;-73
2024/01/06 08:25:18;;;;;;;3.10;2.00;;;2.10;99.90;;;;;;5045478;28;20550;-73
2024/01/06 08:27:44;;;;;;;4.33;2.10;;;2.10;99.90;;;;;;5032143;28;20178;-73
2024/01/06 08:30:10;;;;;;;4.93;2.03;;;2.10;99.90;;;;;;5031759;28;20633;-73
2024/01/06 08:32:36;;;;;;;2.37;1.80;;;2.20;99.90;;;;;;5046775;28;20300;-73
2024/01/06 08:35:03;;;;;;;5.07;2.40;;;2.20;99.90;;;;;;5049535;28;20249;-74
2024/01/06 08:37:29;;;;;;;3.13;2.00;;;2.20;99.90;;;;;;5051482;28;20223;-75
2024/01/06 08:39:55;;;;;;;1.87;1.70;;;2.30;99.90;;;;;;5051387;28;20176;-74
2024/01/06 08:42:21;;;;;;;3.53;2.07;;;2.30;99.90;;;;;;5051455;28;20169;-73
2024/01/06 08:44:47;;;;;;;5.10;2.00;;;2.40;99.90;;;;;;5049995;28;20188;-74
2024/01/06 08:47:12;;;;;;;3.20;1.73;;;2.40;99.90;;;;;;5051391;28;20166;-74
2024/01/06 08:49:38;;;;;;;5.10;2.03;;;2.40;99.90;;;;;;5051394;28;20627;-74
2024/01/06 08:52:04;;;;;;;6.33;2.03;;;2.50;99.90;;;;;;5049010;28;20228;-74
2024/01/06 08:54:31;;;;;;;3.27;1.63;;;2.50;99.90;;;;;;5051337;28;20208;-74
2024/01/06 08:56:57;;;;;;;2.87;1.67;;;2.50;99.90;;;;;;5051274;28;20283;-75
2024/01/06 08:59:23;;;;;;;3.90;1.60;;;2.50;99.90;;;;;;5038375;28;20253;-76
2024/01/06 09:01:48;;;;;;;6.77;2.00;;;2.50;99.90;;;;;;5034524;28;20707;-76
2024/01/06 09:04:14;;;;;;;2.77;1.60;;;2.60;99.90;;;;;;5039094;28;20581;-75
2024/01/06 09:06:41;;;;;;;4.10;1.93;;;2.60;99.90;;;;;;5037895;28;20196;-75
2024/01/06 09:09:08;;;;;;;4.97;1.60;;;2.60;99.90;;;;;;5031113;28;20244;-75
2024/01/06 09:11:34;;;;;;;2.53;1.60;;;2.60;99.90;;;;;;5062906;28;20176;-75
2024/01/06 09:14:00;;;;;;;2.87;1.60;;;2.70;99.90;;;;;;5031242;28;20300;-76
2024/01/06 09:16:26;;;;;;;4.13;1.90;;;2.80;99.90;;;;;;5030949;28;20184;-75
2024/01/06 09:18:52;;;;;;;5.17;1.93;;;2.80;99.90;;;;;;5049648;28;20173;-75
2024/01/06 09:21:17;;;;;;;3.53;1.73;;;2.90;99.90;;;;;;5050975;28;20554;-75
2024/01/06 09:23:43;;;;;;;3.10;1.70;;;2.80;99.90;;;;;;5051312;28;20181;-74
2024/01/06 09:26:10;;;;;;;2.70;1.60;;;3.00;99.90;;;;;;5045957;28;20256;-75
2024/01/06 09:28:35;;;;;;;1.93;1.60;;;3.00;99.90;;;;;;5050878;28;20188;-75
2024/01/06 09:31:01;;;;;;;2.73;1.77;;;3.00;99.90;;;;;;5050666;28;20161;-75
2024/01/06 09:33:26;;;;;;;3.83;1.97;;;3.00;99.90;;;;;;5050701;28;20274;-75
2024/01/06 09:35:53;;;;;;;3.20;1.80;;;3.00;99.90;;;;;;5050676;28;20165;-75
2024/01/06 09:38:19;;;;;;;2.03;1.80;;;3.20;99.90;;;;;;5050755;28;20682;-75
2024/01/06 09:40:45;;;;;;;3.03;2.00;;;3.10;99.90;;;;;;5050772;28;20242;-75
2024/01/06 09:43:11;;;;;;;2.50;1.80;;;3.20;99.90;;;;;;5050778;28;20642;-73
2024/01/06 09:45:39;;;;;;;3.10;1.90;;;3.20;99.90;;;;;;5050766;28;20679;-73
2024/01/06 09:48:13;;;;;;;2.93;2.13;;;3.20;99.90;;;;;;5050625;28;20181;-74
2024/01/06 09:50:42;;;;;;;6.33;2.47;;;3.20;99.90;;;;;;5050548;28;20590;-74
2024/01/06 09:53:12;;;;;;;3.13;2.20;;;3.20;99.90;;;;;;5050608;28;20225;-73
2024/01/06 09:55:38;;;;;;;4.70;2.30;;;3.30;99.90;;;;;;5050564;28;20174;-74
2024/01/06 09:58:06;;;;;;;2.90;2.30;;;3.50;99.90;;;;;;5050255;28;20215;-73
2024/01/06 10:00:32;;;;;;;5.83;2.40;;;3.60;99.90;;;;;;5050071;28;20188;-73
2024/01/06 10:02:57;;;;;;;3.57;2.17;;;3.80;99.90;;;;;;5050912;28;20174;-74
2024/01/06 10:05:23;;;;;;;2.70;2.00;;;3.90;99.90;;;;;;5052456;28;20209;-72
2024/01/06 10:07:49;;;;;;;2.83;2.07;;;4.10;99.90;;;;;;5052834;28;20624;-74
2024/01/06 10:10:15;;;;;;;3.77;2.10;;;4.30;99.90;;;;;;5053775;28;20173;-73
2024/01/06 10:12:42;;;;;;;4.20;2.40;;;4.70;99.90;;;;;;5053772;28;20201;-72
2024/01/06 10:15:09;;;;;;;3.40;2.43;;;5.10;99.90;;;;;;5053822;28;20170;-72
2024/01/06 10:17:42;;;;;;;4.63;3.00;;;5.00;99.90;;;;;;5054027;28;20176;-72
2024/01/06 10:20:12;;;;;;;5.37;3.80;;;4.80;99.90;;;;;;5054085;28;20664;-72
2024/01/06 10:22:40;;;;;;;8.07;4.50;;;4.70;99.90;;;;;;5053918;28;20169;-72
2024/01/06 10:25:07;;;;;;;6.80;4.90;;;4.90;99.90;;;;;;5054131;28;20192;-72
2024/01/06 10:27:39;;;;;;;9.13;4.50;;;5.10;99.90;;;;;;5053984;28;20651;-72
2024/01/06 10:30:09;;;;;;;5.07;4.37;;;5.30;99.90;;;;;;5053810;28;20214;-72
2024/01/06 10:32:36;;;;;;;7.07;4.50;;;5.50;99.90;;;;;;5053690;28;20226;-72
2024/01/06 10:35:03;;;;;;;5.97;4.03;;;5.80;99.90;;;;;;5053636;28;20161;-72
2024/01/06 10:37:29;;;;;;;5.20;4.00;;;6.10;99.90;;;;;;5052280;28;20314;-72
2024/01/06 10:40:09;;;;;;;4.10;3.70;;;6.20;99.90;;;;;;5053896;28;20169;-72
2024/01/06 10:42:36;;;;;;;4.00;3.60;;;6.30;99.90;;;;;;5053640;28;20173;-72
2024/01/06 10:45:02;;;;;;;7.87;4.03;;;7.00;99.90;;;;;;5053719;28;20204;-72
2024/01/06 10:47:31;;;;;;;6.13;3.90;;;8.70;99.90;;;;;;5053666;28;20197;-72
2024/01/06 10:49:59;;;;;;;6.23;3.50;;;8.70;99.90;;;;;;5053460;28;20660;-72
2024/01/06 10:52:27;;;;;;;3.90;3.00;;;9.20;99.90;;;;;;5053465;28;20166;-72
2024/01/06 10:54:54;;;;;;;4.50;3.50;;;8.70;99.90;;;;;;5053449;28;20212;-72
2024/01/06 10:57:20;;;;;;;7.60;4.83;;;9.40;99.90;;;;;;5053461;28;20201;-72
2024/01/06 10:59:49;;;;;;;7.57;6.33;;;9.10;99.90;;;;;;5053400;28;20816;-71
2024/01/06 11:02:18;;;;;;;10.00;7.30;;;9.10;99.90;;;;;;5053240;28;20177;-72
2024/01/06 11:04:48;;;;;;;6.50;5.50;;;9.20;99.90;;;;;;5053336;28;20226;-72
2024/01/06 11:07:16;;;;;;;9.20;5.27;;;9.40;99.90;;;;;;5051833;28;20208;-72
2024/01/06 11:09:51;;;;;;;7.70;4.90;;;9.40;99.90;;;;;;5053193;28;20161;-72
2024/01/06 11:12:17;;;;;;;8.33;3.97;;;9.70;99.90;;;;;;5053049;28;20173;-72
2024/01/06 11:14:45;;;;;;;6.77;3.20;;;10.50;99.90;;;;;;5052514;28;20307;-72
2024/01/06 11:17:11;;;;;;;5.50;2.90;;;11.20;99.90;;;;;;5052956;28;20310;-72
2024/01/06 11:19:37;;;;;;;8.93;2.50;;;12.00;99.90;;;;;;5052966;28;20248;-72
2024/01/06 11:22:23;;;;;;;7.07;2.30;;;12.10;99.90;;;;;;5052880;28;20179;-72
2024/01/06 11:24:57;;;;;;;7.70;2.30;;;14.20;99.90;;;;;;5052768;28;20168;-72
2024/01/06 11:27:29;;;;;;;13.60;2.37;;;14.60;99.90;;;;;;5052854;28;20201;-72
2024/01/06 11:29:57;;;;;;;8.10;2.20;;;12.40;99.90;;;;;;5052812;28;20227;-72
2024/01/06 11:32:35;;;;;;;13.13;2.20;;;11.40;99.90;;;;;;5052764;28;20177;-72
2024/01/06 11:35:18;;;;;;;15.93;11.30;;;10.60;99.90;;;;;;5052447;28;20204;-72
2024/01/06 11:37:43;;;;;;;51.17;21.47;;;10.20;99.90;;;;;;5042478;28;20190;-72
2024/01/06 11:40:13;;;;;;;11.53;2.30;;;9.70;99.90;;;;;;5048648;28;20243;-72
2024/01/06 11:42:41;;;;;;;10.33;2.50;;;9.50;99.90;;;;;;5049054;28;20169;-72
2024/01/06 11:45:08;;;;;;;8.23;3.23;;;9.40;99.90;;;;;;5032469;28;20166;-72
2024/01/06 11:47:35;;;;;;;8.90;3.60;;;9.20;99.90;;;;;;5032398;28;20188;-72
2024/01/06 11:50:04;;;;;;;8.00;2.80;;;9.20;99.90;;;;;;5032184;28;20182;-72
2024/01/06 11:52:34;;;;;;;9.50;2.60;;;9.30;99.90;;;;;;5032090;28;20166;-72
2024/01/06 11:55:00;;;;;;;7.10;3.27;;;9.20;99.90;;;;;;5036705;28;20173;-72
2024/01/06 11:57:27;;;;;;;14.83;3.30;;;9.00;99.90;;;;;;5052137;28;20173;-72
2024/01/06 11:59:53;;;;;;;6.50;2.30;;;8.90;99.90;;;;;;5050781;28;20172;-72
2024/01/06 12:02:19;;;;;;;8.67;3.13;;;10.00;99.90;;;;;;5034018;28;20169;-72
2024/01/06 12:04:52;;;;;;;40.80;19.57;;;10.90;99.90;;;;;;5052115;28;20177;-72
2024/01/06 12:07:19;;;;;;;5.53;2.33;;;11.20;99.90;;;;;;5051833;28;20238;-72
2024/01/06 12:10:01;;;;;;;13.47;5.97;;;10.50;99.90;;;;;;5051907;28;20595;-72
2024/01/06 12:12:27;;;;;;;13.93;5.73;;;10.10;99.90;;;;;;5051736;28;20181;-72
2024/01/06 12:14:52;;;;;;;25.93;11.83;;;9.50;99.90;;;;;;5051800;28;20655;-72
2024/01/06 12:17:21;;;;;;;6.90;2.30;;;9.00;99.90;;;;;;5051826;28;20196;-72
2024/01/06 12:19:47;;;;;;;8.17;2.00;;;8.80;99.90;;;;;;5051705;28;20256;-73
2024/01/06 12:22:15;;;;;;;5.17;1.90;;;8.90;99.90;;;;;;5051635;28;20177;-72
2024/01/06 12:24:44;;;;;;;7.27;2.00;;;9.00;99.90;;;;;;5051569;28;20188;-72
2024/01/06 12:27:11;;;;;;;8.27;2.40;;;9.10;99.90;;;;;;5051732;28;20201;-73
2024/01/06 12:29:41;;;;;;;8.93;1.80;;;9.40;99.90;;;;;;5051504;28;20181;-72
2024/01/06 12:32:08;;;;;;;5.00;1.80;;;9.60;99.90;;;;;;5051652;28;20212;-71
2024/01/06 12:34:35;;;;;;;11.23;2.63;;;9.40;99.90;;;;;;5051449;28;20244;-71
2024/01/06 12:37:02;;;;;;;8.93;1.63;;;9.30;99.90;;;;;;5051514;28;20176;-71
2024/01/06 12:39:29;;;;;;;8.70;2.50;;;9.30;99.90;;;;;;5051610;28;20187;-71
2024/01/06 12:41:55;;;;;;;176.50;70.33;;;9.30;99.90;;;;;;5051319;28;20177;-71
2024/01/06 12:44:20;;;;;;;45.33;20.60;;;9.30;99.90;;;;;;5051251;28;20169;-71
2024/01/06 12:46:47;;;;;;;24.40;9.60;;;9.30;99.90;;;;;;5051228;28;20245;-71
2024/01/06 12:49:13;;;;;;;23.23;15.03;;;9.30;99.90;;;;;;5051120;28;20180;-71
2024/01/06 12:51:39;;;;;;;20.23;9.03;;;9.40;99.90;;;;;;5050987;28;20208;-72